sensor_id;sensor_type;location;lat;lon;timestamp;P1;durP1;ratioP1;P2;durP2;ratioP2
5414;SDS011;2730;51.512;7.504;2023-06-22T00:00:00;11.10;;;5.63;;
5414;SDS011;2730;51.512;7.504;2023-06-22T00:02:33;5.87;;;5.33;;
5414;SDS011;2730;51.512;7.504;2023-06-22T00:04:59;6.80;;;5.10;;
5414;SDS011;2730;51.512;7.504;2023-06-22T00:07:26;6.10;;;5.27;;
5414;SDS011;2730;51.512;7.504;2023-06-22T00:09:53;5.20;;;4.70;;
5414;SDS011;2730;51.512;7.504;2023-06-22T00:12:20;5.33;;;4.60;;
5414;SDS011;2730;51.512;7.504;2023-06-22T00:14:46;5.77;;;5.27;;
5414;SDS011;2730;51.512;7.504;2023-06-22T00:17:14;10.07;;;5.73;;
5414;SDS011;2730;51.512;7.504;2023-06-22T00:19:41;10.97;;;6.23;;
5414;SDS011;2730;51.512;7.504;2023-06-22T00:22:08;11.40;;;5.90;;
5414;SDS011;2730;51.512;7.504;2023-06-22T00:24:35;9.17;;;7.73;;
5414;SDS011;2730;51.512;7.504;2023-06-22T00:27:01;12.27;;;6.53;;
5414;SDS011;2730;51.512;7.504;2023-06-22T00:29:30;8.83;;;6.10;;
5414;SDS011;2730;51.512;7.504;2023-06-22T00:31:57;9.63;;;6.13;;
5414;SDS011;2730;51.512;7.504;2023-06-22T00:34:25;9.33;;;6.77;;
5414;SDS011;2730;51.512;7.504;2023-06-22T00:36:51;10.03;;;6.77;;
5414;SDS011;2730;51.512;7.504;2023-06-22T00:39:18;9.17;;;6.80;;
5414;SDS011;2730;51.512;7.504;2023-06-22T00:41:45;9.13;;;6.93;;
5414;SDS011;2730;51.512;7.504;2023-06-22T00:44:11;11.70;;;7.90;;
5414;SDS011;2730;51.512;7.504;2023-06-22T00:46:38;14.53;;;6.60;;
5414;SDS011;2730;51.512;7.504;2023-06-22T00:49:05;8.23;;;6.90;;
5414;SDS011;2730;51.512;7.504;2023-06-22T00:51:33;9.70;;;6.70;;
5414;SDS011;2730;51.512;7.504;2023-06-22T00:54:03;9.33;;;7.33;;
5414;SDS011;2730;51.512;7.504;2023-06-22T00:56:31;13.43;;;7.20;;
5414;SDS011;2730;51.512;7.504;2023-06-22T00:58:58;8.93;;;7.30;;
5414;SDS011;2730;51.512;7.504;2023-06-22T01:01:28;10.37;;;7.37;;
5414;SDS011;2730;51.512;7.504;2023-06-22T01:03:55;11.20;;;7.83;;
5414;SDS011;2730;51.512;7.504;2023-06-22T01:06:25;9.23;;;7.77;;
5414;SDS011;2730;51.512;7.504;2023-06-22T01:09:06;9.40;;;7.43;;
5414;SDS011;2730;51.512;7.504;2023-06-22T01:11:41;10.10;;;7.30;;
5414;SDS011;2730;51.512;7.504;2023-06-22T01:14:12;8.90;;;7.53;;
5414;SDS011;2730;51.512;7.504;2023-06-22T01:16:41;12.73;;;7.90;;
5414;SDS011;2730;51.512;7.504;2023-06-22T01:19:16;9.20;;;8.10;;
5414;SDS011;2730;51.512;7.504;2023-06-22T01:21:53;9.67;;;7.50;;
5414;SDS011;2730;51.512;7.504;2023-06-22T01:24:24;10.70;;;7.60;;
5414;SDS011;2730;51.512;7.504;2023-06-22T01:26:58;8.57;;;6.90;;
5414;SDS011;2730;51.512;7.504;2023-06-22T01:29:37;13.50;;;7.30;;
5414;SDS011;2730;51.512;7.504;2023-06-22T01:32:05;12.80;;;6.80;;
5414;SDS011;2730;51.512;7.504;2023-06-22T01:34:33;10.67;;;7.60;;
5414;SDS011;2730;51.512;7.504;2023-06-22T01:37:00;9.30;;;6.80;;
5414;SDS011;2730;51.512;7.504;2023-06-22T01:39:28;11.10;;;7.47;;
5414;SDS011;2730;51.512;7.504;2023-06-22T01:41:56;11.53;;;7.40;;
5414;SDS011;2730;51.512;7.504;2023-06-22T01:44:23;10.50;;;8.13;;
5414;SDS011;2730;51.512;7.504;2023-06-22T01:46:54;8.97;;;7.90;;
5414;SDS011;2730;51.512;7.504;2023-06-22T01:49:21;13.47;;;8.73;;
5414;SDS011;2730;51.512;7.504;2023-06-22T01:51:48;9.90;;;8.47;;
5414;SDS011;2730;51.512;7.504;2023-06-22T01:54:15;10.57;;;7.83;;
5414;SDS011;2730;51.512;7.504;2023-06-22T01:56:42;14.27;;;8.40;;
5414;SDS011;2730;51.512;7.504;2023-06-22T01:59:09;16.73;;;8.60;;
5414;SDS011;2730;51.512;7.504;2023-06-22T02:01:41;10.57;;;8.63;;
5414;SDS011;2730;51.512;7.504;2023-06-22T02:04:13;12.83;;;8.63;;
5414;SDS011;2730;51.512;7.504;2023-06-22T02:06:46;10.67;;;8.77;;
5414;SDS011;2730;51.512;7.504;2023-06-22T02:09:16;9.73;;;8.40;;
5414;SDS011;2730;51.512;7.504;2023-06-22T02:11:46;9.53;;;8.23;;
5414;SDS011;2730;51.512;7.504;2023-06-22T02:14:16;14.20;;;8.00;;
5414;SDS011;2730;51.512;7.504;2023-06-22T02:16:44;9.63;;;8.20;;
5414;SDS011;2730;51.512;7.504;2023-06-22T02:19:13;9.00;;;7.87;;
5414;SDS011;2730;51.512;7.504;2023-06-22T02:21:40;10.90;;;8.20;;
5414;SDS011;2730;51.512;7.504;2023-06-22T02:24:07;11.63;;;9.07;;
5414;SDS011;2730;51.512;7.504;2023-06-22T02:26:34;11.10;;;8.30;;
5414;SDS011;2730;51.512;7.504;2023-06-22T02:29:03;11.33;;;8.47;;
5414;SDS011;2730;51.512;7.504;2023-06-22T02:31:30;12.60;;;8.37;;
5414;SDS011;2730;51.512;7.504;2023-06-22T02:33:57;10.60;;;8.03;;
5414;SDS011;2730;51.512;7.504;2023-06-22T02:36:25;13.63;;;9.30;;
5414;SDS011;2730;51.512;7.504;2023-06-22T02:38:55;17.00;;;9.27;;
5414;SDS011;2730;51.512;7.504;2023-06-22T02:41:26;13.73;;;10.77;;
5414;SDS011;2730;51.512;7.504;2023-06-22T02:43:52;14.47;;;10.43;;
5414;SDS011;2730;51.512;7.504;2023-06-22T02:46:19;14.17;;;9.50;;
5414;SDS011;2730;51.512;7.504;2023-06-22T02:48:46;14.43;;;9.63;;
5414;SDS011;2730;51.512;7.504;2023-06-22T02:51:13;13.07;;;9.03;;
5414;SDS011;2730;51.512;7.504;2023-06-22T02:53:41;10.83;;;9.10;;
5414;SDS011;2730;51.512;7.504;2023-06-22T02:56:09;13.83;;;9.70;;
5414;SDS011;2730;51.512;7.504;2023-06-22T02:58:37;17.60;;;9.87;;
5414;SDS011;2730;51.512;7.504;2023-06-22T03:01:04;12.57;;;10.00;;
5414;SDS011;2730;51.512;7.504;2023-06-22T03:03:31;14.90;;;9.80;;
5414;SDS011;2730;51.512;7.504;2023-06-22T03:05:58;15.83;;;9.77;;
5414;SDS011;2730;51.512;7.504;2023-06-22T03:08:26;12.80;;;8.77;;
5414;SDS011;2730;51.512;7.504;2023-06-22T03:10:55;13.80;;;10.03;;
5414;SDS011;2730;51.512;7.504;2023-06-22T03:13:21;16.00;;;10.30;;
5414;SDS011;2730;51.512;7.504;2023-06-22T03:15:48;12.00;;;9.00;;
5414;SDS011;2730;51.512;7.504;2023-06-22T03:18:15;16.87;;;9.50;;
5414;SDS011;2730;51.512;7.504;2023-06-22T03:20:42;16.03;;;9.73;;
5414;SDS011;2730;51.512;7.504;2023-06-22T03:23:09;11.60;;;9.60;;
5414;SDS011;2730;51.512;7.504;2023-06-22T03:25:35;11.93;;;8.40;;
5414;SDS011;2730;51.512;7.504;2023-06-22T03:28:04;19.90;;;9.93;;
5414;SDS011;2730;51.512;7.504;2023-06-22T03:30:30;12.77;;;8.93;;
5414;SDS011;2730;51.512;7.504;2023-06-22T03:32:57;13.87;;;10.30;;
5414;SDS011;2730;51.512;7.504;2023-06-22T03:35:24;13.03;;;10.73;;
5414;SDS011;2730;51.512;7.504;2023-06-22T03:37:51;14.00;;;10.20;;
5414;SDS011;2730;51.512;7.504;2023-06-22T03:40:17;12.70;;;9.97;;
5414;SDS011;2730;51.512;7.504;2023-06-22T03:42:45;15.10;;;10.50;;
5414;SDS011;2730;51.512;7.504;2023-06-22T03:45:13;18.10;;;11.47;;
5414;SDS011;2730;51.512;7.504;2023-06-22T03:47:40;17.83;;;11.40;;
5414;SDS011;2730;51.512;7.504;2023-06-22T03:50:07;18.27;;;11.93;;
5414;SDS011;2730;51.512;7.504;2023-06-22T03:52:34;15.97;;;11.30;;
5414;SDS011;2730;51.512;7.504;2023-06-22T03:55:01;14.70;;;9.80;;
5414;SDS011;2730;51.512;7.504;2023-06-22T03:57:27;17.50;;;11.70;;
5414;SDS011;2730;51.512;7.504;2023-06-22T03:59:56;20.87;;;12.03;;
5414;SDS011;2730;51.512;7.504;2023-06-22T04:02:25;12.60;;;9.97;;
5414;SDS011;2730;51.512;7.504;2023-06-22T04:04:51;16.37;;;11.40;;
5414;SDS011;2730;51.512;7.504;2023-06-22T04:07:18;17.10;;;11.77;;
5414;SDS011;2730;51.512;7.504;2023-06-22T04:09:45;12.90;;;10.10;;
5414;SDS011;2730;51.512;7.504;2023-06-22T04:12:12;20.70;;;12.00;;
5414;SDS011;2730;51.512;7.504;2023-06-22T04:14:38;19.03;;;11.20;;
5414;SDS011;2730;51.512;7.504;2023-06-22T04:17:05;13.60;;;11.37;;
5414;SDS011;2730;51.512;7.504;2023-06-22T04:19:33;17.13;;;11.00;;
5414;SDS011;2730;51.512;7.504;2023-06-22T04:22:00;14.40;;;11.37;;
5414;SDS011;2730;51.512;7.504;2023-06-22T04:24:27;16.07;;;10.83;;
5414;SDS011;2730;51.512;7.504;2023-06-22T04:26:53;14.10;;;11.07;;
5414;SDS011;2730;51.512;7.504;2023-06-22T04:29:20;16.10;;;12.57;;
5414;SDS011;2730;51.512;7.504;2023-06-22T04:31:53;15.00;;;11.30;;
5414;SDS011;2730;51.512;7.504;2023-06-22T04:34:22;16.67;;;11.80;;
5414;SDS011;2730;51.512;7.504;2023-06-22T04:36:52;14.67;;;10.50;;
5414;SDS011;2730;51.512;7.504;2023-06-22T04:39:19;12.97;;;10.63;;
5414;SDS011;2730;51.512;7.504;2023-06-22T04:41:46;15.70;;;11.10;;
5414;SDS011;2730;51.512;7.504;2023-06-22T04:44:14;18.93;;;11.83;;
5414;SDS011;2730;51.512;7.504;2023-06-22T04:46:48;18.33;;;12.70;;
5414;SDS011;2730;51.512;7.504;2023-06-22T04:49:18;15.57;;;11.53;;
5414;SDS011;2730;51.512;7.504;2023-06-22T04:51:47;15.57;;;10.97;;
5414;SDS011;2730;51.512;7.504;2023-06-22T04:54:18;14.68;;;11.77;;
5414;SDS011;2730;51.512;7.504;2023-06-22T04:56:44;13.97;;;11.83;;
5414;SDS011;2730;51.512;7.504;2023-06-22T04:59:11;15.27;;;11.27;;
5414;SDS011;2730;51.512;7.504;2023-06-22T05:01:39;15.30;;;10.77;;
5414;SDS011;2730;51.512;7.504;2023-06-22T05:04:05;19.70;;;11.30;;
5414;SDS011;2730;51.512;7.504;2023-06-22T05:06:32;14.20;;;12.20;;
5414;SDS011;2730;51.512;7.504;2023-06-22T05:08:59;18.90;;;11.17;;
5414;SDS011;2730;51.512;7.504;2023-06-22T05:11:27;15.43;;;12.00;;
5414;SDS011;2730;51.512;7.504;2023-06-22T05:13:54;16.20;;;11.37;;
5414;SDS011;2730;51.512;7.504;2023-06-22T05:16:22;15.03;;;10.93;;
5414;SDS011;2730;51.512;7.504;2023-06-22T05:18:52;18.93;;;11.93;;
5414;SDS011;2730;51.512;7.504;2023-06-22T05:21:21;16.83;;;10.67;;
5414;SDS011;2730;51.512;7.504;2023-06-22T05:23:49;17.97;;;10.60;;
5414;SDS011;2730;51.512;7.504;2023-06-22T05:26:16;18.00;;;11.87;;
5414;SDS011;2730;51.512;7.504;2023-06-22T05:28:44;17.40;;;11.60;;
5414;SDS011;2730;51.512;7.504;2023-06-22T05:31:12;16.00;;;13.27;;
5414;SDS011;2730;51.512;7.504;2023-06-22T05:33:39;14.37;;;11.30;;
5414;SDS011;2730;51.512;7.504;2023-06-22T05:36:05;13.33;;;10.60;;
5414;SDS011;2730;51.512;7.504;2023-06-22T05:38:32;19.20;;;12.27;;
5414;SDS011;2730;51.512;7.504;2023-06-22T05:40:59;13.03;;;10.53;;
5414;SDS011;2730;51.512;7.504;2023-06-22T05:43:26;17.47;;;9.93;;
5414;SDS011;2730;51.512;7.504;2023-06-22T05:45:54;18.60;;;9.90;;
5414;SDS011;2730;51.512;7.504;2023-06-22T05:48:21;12.80;;;10.33;;
5414;SDS011;2730;51.512;7.504;2023-06-22T05:50:48;16.80;;;9.73;;
5414;SDS011;2730;51.512;7.504;2023-06-22T05:53:14;16.27;;;10.50;;
5414;SDS011;2730;51.512;7.504;2023-06-22T05:55:41;20.00;;;9.90;;
5414;SDS011;2730;51.512;7.504;2023-06-22T05:58:08;17.77;;;10.17;;
5414;SDS011;2730;51.512;7.504;2023-06-22T06:00:35;17.00;;;10.20;;
5414;SDS011;2730;51.512;7.504;2023-06-22T06:03:03;17.10;;;10.00;;
5414;SDS011;2730;51.512;7.504;2023-06-22T06:05:30;14.80;;;10.13;;
5414;SDS011;2730;51.512;7.504;2023-06-22T06:07:58;18.70;;;10.80;;
5414;SDS011;2730;51.512;7.504;2023-06-22T06:10:25;15.50;;;9.80;;
5414;SDS011;2730;51.512;7.504;2023-06-22T06:12:52;13.77;;;10.00;;
5414;SDS011;2730;51.512;7.504;2023-06-22T06:15:19;14.90;;;10.67;;
5414;SDS011;2730;51.512;7.504;2023-06-22T06:17:46;21.93;;;10.87;;
5414;SDS011;2730;51.512;7.504;2023-06-22T06:20:15;14.27;;;11.53;;
5414;SDS011;2730;51.512;7.504;2023-06-22T06:22:42;16.10;;;10.33;;
5414;SDS011;2730;51.512;7.504;2023-06-22T06:25:09;15.00;;;10.90;;
5414;SDS011;2730;51.512;7.504;2023-06-22T06:27:40;18.77;;;12.50;;
5414;SDS011;2730;51.512;7.504;2023-06-22T06:30:08;18.10;;;12.70;;
5414;SDS011;2730;51.512;7.504;2023-06-22T06:32:35;20.30;;;11.63;;
5414;SDS011;2730;51.512;7.504;2023-06-22T06:35:03;20.20;;;11.40;;
5414;SDS011;2730;51.512;7.504;2023-06-22T06:37:32;15.97;;;11.70;;
5414;SDS011;2730;51.512;7.504;2023-06-22T06:40:02;19.23;;;12.73;;
5414;SDS011;2730;51.512;7.504;2023-06-22T06:42:31;16.93;;;11.63;;
5414;SDS011;2730;51.512;7.504;2023-06-22T06:44:58;17.00;;;12.30;;
5414;SDS011;2730;51.512;7.504;2023-06-22T06:47:25;21.20;;;13.07;;
5414;SDS011;2730;51.512;7.504;2023-06-22T06:49:51;21.43;;;12.37;;
5414;SDS011;2730;51.512;7.504;2023-06-22T06:52:18;18.77;;;13.37;;
5414;SDS011;2730;51.512;7.504;2023-06-22T06:54:47;18.13;;;13.43;;
5414;SDS011;2730;51.512;7.504;2023-06-22T06:57:13;23.33;;;13.73;;
5414;SDS011;2730;51.512;7.504;2023-06-22T06:59:40;25.03;;;13.03;;
5414;SDS011;2730;51.512;7.504;2023-06-22T07:02:07;20.60;;;13.50;;
5414;SDS011;2730;51.512;7.504;2023-06-22T07:04:34;20.63;;;13.17;;
5414;SDS011;2730;51.512;7.504;2023-06-22T07:07:01;18.30;;;13.00;;
5414;SDS011;2730;51.512;7.504;2023-06-22T07:09:28;17.27;;;12.57;;
5414;SDS011;2730;51.512;7.504;2023-06-22T07:11:56;19.73;;;14.90;;
5414;SDS011;2730;51.512;7.504;2023-06-22T07:14:23;17.50;;;12.87;;
5414;SDS011;2730;51.512;7.504;2023-06-22T07:16:50;20.63;;;13.30;;
5414;SDS011;2730;51.512;7.504;2023-06-22T07:19:16;16.77;;;12.90;;
5414;SDS011;2730;51.512;7.504;2023-06-22T07:21:51;20.90;;;13.33;;
5414;SDS011;2730;51.512;7.504;2023-06-22T07:24:18;19.73;;;14.37;;
5414;SDS011;2730;51.512;7.504;2023-06-22T07:26:45;16.57;;;12.77;;
5414;SDS011;2730;51.512;7.504;2023-06-22T07:29:14;18.93;;;13.53;;
5414;SDS011;2730;51.512;7.504;2023-06-22T07:31:41;20.23;;;13.90;;
5414;SDS011;2730;51.512;7.504;2023-06-22T07:34:08;17.40;;;13.27;;
5414;SDS011;2730;51.512;7.504;2023-06-22T07:36:34;18.53;;;13.60;;
5414;SDS011;2730;51.512;7.504;2023-06-22T07:39:01;17.50;;;13.30;;
5414;SDS011;2730;51.512;7.504;2023-06-22T07:41:29;23.43;;;14.30;;
5414;SDS011;2730;51.512;7.504;2023-06-22T07:43:55;17.77;;;13.63;;
5414;SDS011;2730;51.512;7.504;2023-06-22T07:46:23;19.93;;;14.57;;
5414;SDS011;2730;51.512;7.504;2023-06-22T07:48:50;17.47;;;14.90;;
5414;SDS011;2730;51.512;7.504;2023-06-22T07:51:17;27.17;;;15.20;;
5414;SDS011;2730;51.512;7.504;2023-06-22T07:53:44;20.43;;;14.43;;
5414;SDS011;2730;51.512;7.504;2023-06-22T07:56:11;22.57;;;14.67;;
5414;SDS011;2730;51.512;7.504;2023-06-22T07:58:38;18.33;;;14.07;;
5414;SDS011;2730;51.512;7.504;2023-06-22T08:01:04;24.17;;;14.60;;
5414;SDS011;2730;51.512;7.504;2023-06-22T08:03:33;17.17;;;14.30;;
5414;SDS011;2730;51.512;7.504;2023-06-22T08:06:00;24.20;;;14.23;;
5414;SDS011;2730;51.512;7.504;2023-06-22T08:08:27;21.63;;;15.37;;
5414;SDS011;2730;51.512;7.504;2023-06-22T08:10:53;18.57;;;14.40;;
5414;SDS011;2730;51.512;7.504;2023-06-22T08:13:20;26.47;;;16.77;;
5414;SDS011;2730;51.512;7.504;2023-06-22T08:15:47;20.23;;;14.63;;
5414;SDS011;2730;51.512;7.504;2023-06-22T08:18:14;20.53;;;14.50;;
5414;SDS011;2730;51.512;7.504;2023-06-22T08:20:42;20.90;;;15.13;;
5414;SDS011;2730;51.512;7.504;2023-06-22T08:23:09;23.27;;;15.40;;
5414;SDS011;2730;51.512;7.504;2023-06-22T08:25:36;20.40;;;14.33;;
5414;SDS011;2730;51.512;7.504;2023-06-22T08:28:03;24.00;;;14.07;;
5414;SDS011;2730;51.512;7.504;2023-06-22T08:30:30;26.60;;;14.37;;
5414;SDS011;2730;51.512;7.504;2023-06-22T08:32:57;23.97;;;13.17;;
5414;SDS011;2730;51.512;7.504;2023-06-22T08:35:24;15.67;;;12.93;;
5414;SDS011;2730;51.512;7.504;2023-06-22T08:37:52;23.00;;;13.20;;
5414;SDS011;2730;51.512;7.504;2023-06-22T08:40:20;19.93;;;13.10;;
5414;SDS011;2730;51.512;7.504;2023-06-22T08:42:47;20.73;;;13.50;;
5414;SDS011;2730;51.512;7.504;2023-06-22T08:45:15;15.90;;;12.60;;
5414;SDS011;2730;51.512;7.504;2023-06-22T08:47:42;14.60;;;12.80;;
5414;SDS011;2730;51.512;7.504;2023-06-22T08:50:09;17.43;;;12.10;;
5414;SDS011;2730;51.512;7.504;2023-06-22T08:52:37;16.63;;;11.80;;
5414;SDS011;2730;51.512;7.504;2023-06-22T08:55:08;16.07;;;12.07;;
5414;SDS011;2730;51.512;7.504;2023-06-22T08:57:35;14.73;;;12.93;;
5414;SDS011;2730;51.512;7.504;2023-06-22T09:00:04;16.53;;;13.00;;
5414;SDS011;2730;51.512;7.504;2023-06-22T09:02:40;17.13;;;13.40;;
5414;SDS011;2730;51.512;7.504;2023-06-22T09:05:07;16.90;;;13.73;;
5414;SDS011;2730;51.512;7.504;2023-06-22T09:07:34;15.80;;;11.90;;
5414;SDS011;2730;51.512;7.504;2023-06-22T09:10:01;16.70;;;12.60;;
5414;SDS011;2730;51.512;7.504;2023-06-22T09:12:30;13.27;;;11.43;;
5414;SDS011;2730;51.512;7.504;2023-06-22T09:14:58;13.90;;;11.70;;
5414;SDS011;2730;51.512;7.504;2023-06-22T09:17:25;18.93;;;10.73;;
5414;SDS011;2730;51.512;7.504;2023-06-22T09:19:52;12.77;;;9.40;;
5414;SDS011;2730;51.512;7.504;2023-06-22T09:22:19;13.63;;;9.80;;
5414;SDS011;2730;51.512;7.504;2023-06-22T09:24:46;10.33;;;9.33;;
5414;SDS011;2730;51.512;7.504;2023-06-22T09:27:13;15.53;;;10.70;;
5414;SDS011;2730;51.512;7.504;2023-06-22T09:29:41;10.80;;;9.63;;
5414;SDS011;2730;51.512;7.504;2023-06-22T09:32:08;12.57;;;10.20;;
5414;SDS011;2730;51.512;7.504;2023-06-22T09:34:35;11.77;;;10.47;;
5414;SDS011;2730;51.512;7.504;2023-06-22T09:37:02;11.00;;;9.27;;
5414;SDS011;2730;51.512;7.504;2023-06-22T09:39:29;12.10;;;9.57;;
5414;SDS011;2730;51.512;7.504;2023-06-22T09:41:57;9.60;;;8.70;;
5414;SDS011;2730;51.512;7.504;2023-06-22T09:44:25;12.00;;;8.13;;
5414;SDS011;2730;51.512;7.504;2023-06-22T09:46:53;9.13;;;8.00;;
5414;SDS011;2730;51.512;7.504;2023-06-22T09:49:20;12.87;;;10.07;;
5414;SDS011;2730;51.512;7.504;2023-06-22T09:51:46;14.63;;;9.90;;
5414;SDS011;2730;51.512;7.504;2023-06-22T09:54:16;11.00;;;9.90;;
5414;SDS011;2730;51.512;7.504;2023-06-22T09:56:42;11.90;;;10.43;;
5414;SDS011;2730;51.512;7.504;2023-06-22T09:59:09;10.83;;;9.73;;
5414;SDS011;2730;51.512;7.504;2023-06-22T10:01:36;10.87;;;9.60;;
5414;SDS011;2730;51.512;7.504;2023-06-22T10:04:04;9.73;;;8.47;;
5414;SDS011;2730;51.512;7.504;2023-06-22T10:06:31;11.53;;;10.43;;
5414;SDS011;2730;51.512;7.504;2023-06-22T10:08:57;10.70;;;9.13;;
5414;SDS011;2730;51.512;7.504;2023-06-22T10:11:24;10.57;;;9.00;;
5414;SDS011;2730;51.512;7.504;2023-06-22T10:13:55;16.87;;;8.50;;
5414;SDS011;2730;51.512;7.504;2023-06-22T10:16:23;9.93;;;8.90;;
5414;SDS011;2730;51.512;7.504;2023-06-22T10:18:56;9.50;;;8.50;;
5414;SDS011;2730;51.512;7.504;2023-06-22T10:21:24;12.40;;;9.90;;
5414;SDS011;2730;51.512;7.504;2023-06-22T10:23:52;9.97;;;8.97;;
5414;SDS011;2730;51.512;7.504;2023-06-22T10:26:18;12.00;;;9.70;;
5414;SDS011;2730;51.512;7.504;2023-06-22T10:28:45;10.67;;;9.57;;
5414;SDS011;2730;51.512;7.504;2023-06-22T10:31:12;10.30;;;8.87;;
5414;SDS011;2730;51.512;7.504;2023-06-22T10:33:39;10.13;;;8.27;;
5414;SDS011;2730;51.512;7.504;2023-06-22T10:36:06;11.13;;;10.03;;
5414;SDS011;2730;51.512;7.504;2023-06-22T10:38:34;9.53;;;8.57;;
5414;SDS011;2730;51.512;7.504;2023-06-22T10:41:01;9.50;;;7.70;;
5414;SDS011;2730;51.512;7.504;2023-06-22T10:43:28;9.80;;;8.57;;
5414;SDS011;2730;51.512;7.504;2023-06-22T10:45:55;11.20;;;9.60;;
5414;SDS011;2730;51.512;7.504;2023-06-22T10:48:21;12.20;;;8.53;;
5414;SDS011;2730;51.512;7.504;2023-06-22T10:50:48;9.70;;;7.80;;
5414;SDS011;2730;51.512;7.504;2023-06-22T10:53:15;12.53;;;7.77;;
5414;SDS011;2730;51.512;7.504;2023-06-22T10:55:43;10.93;;;8.40;;
5414;SDS011;2730;51.512;7.504;2023-06-22T10:58:10;8.60;;;7.20;;
5414;SDS011;2730;51.512;7.504;2023-06-22T11:00:36;8.87;;;8.03;;
5414;SDS011;2730;51.512;7.504;2023-06-22T11:03:03;7.20;;;6.50;;
5414;SDS011;2730;51.512;7.504;2023-06-22T11:05:30;12.90;;;6.93;;
5414;SDS011;2730;51.512;7.504;2023-06-22T11:07:57;7.77;;;7.03;;
5414;SDS011;2730;51.512;7.504;2023-06-22T11:10:24;11.57;;;7.53;;
5414;SDS011;2730;51.512;7.504;2023-06-22T11:12:53;8.87;;;7.00;;
5414;SDS011;2730;51.512;7.504;2023-06-22T11:15:20;8.40;;;7.17;;
5414;SDS011;2730;51.512;7.504;2023-06-22T11:17:47;9.07;;;7.57;;
5414;SDS011;2730;51.512;7.504;2023-06-22T11:20:14;11.13;;;7.63;;
5414;SDS011;2730;51.512;7.504;2023-06-22T11:22:41;11.63;;;7.93;;
5414;SDS011;2730;51.512;7.504;2023-06-22T11:25:08;9.90;;;7.60;;
5414;SDS011;2730;51.512;7.504;2023-06-22T11:27:36;13.87;;;8.37;;
5414;SDS011;2730;51.512;7.504;2023-06-22T11:30:05;15.63;;;9.10;;
5414;SDS011;2730;51.512;7.504;2023-06-22T11:32:33;13.10;;;9.97;;
5414;SDS011;2730;51.512;7.504;2023-06-22T11:35:00;15.00;;;11.00;;
5414;SDS011;2730;51.512;7.504;2023-06-22T11:37:27;15.43;;;9.90;;
5414;SDS011;2730;51.512;7.504;2023-06-22T11:39:53;19.00;;;12.00;;
5414;SDS011;2730;51.512;7.504;2023-06-22T11:42:20;16.87;;;11.43;;
5414;SDS011;2730;51.512;7.504;2023-06-22T11:44:48;16.67;;;11.60;;
5414;SDS011;2730;51.512;7.504;2023-06-22T11:47:16;20.40;;;13.50;;
5414;SDS011;2730;51.512;7.504;2023-06-22T11:49:43;18.30;;;13.07;;
5414;SDS011;2730;51.512;7.504;2023-06-22T11:52:10;19.53;;;13.83;;
5414;SDS011;2730;51.512;7.504;2023-06-22T11:54:36;21.30;;;15.00;;
5414;SDS011;2730;51.512;7.504;2023-06-22T11:57:04;20.17;;;14.27;;
5414;SDS011;2730;51.512;7.504;2023-06-22T11:59:30;23.40;;;14.90;;
5414;SDS011;2730;51.512;7.504;2023-06-22T12:01:57;22.27;;;14.83;;
5414;SDS011;2730;51.512;7.504;2023-06-22T12:04:25;21.17;;;16.43;;
5414;SDS011;2730;51.512;7.504;2023-06-22T12:06:52;23.67;;;15.23;;
5414;SDS011;2730;51.512;7.504;2023-06-22T12:09:19;23.60;;;16.30;;
5414;SDS011;2730;51.512;7.504;2023-06-22T12:11:46;26.17;;;18.30;;
5414;SDS011;2730;51.512;7.504;2023-06-22T12:14:12;23.43;;;16.47;;
5414;SDS011;2730;51.512;7.504;2023-06-22T12:16:39;22.93;;;16.50;;
5414;SDS011;2730;51.512;7.504;2023-06-22T12:19:06;24.47;;;16.90;;
5414;SDS011;2730;51.512;7.504;2023-06-22T12:21:34;19.90;;;14.63;;
5414;SDS011;2730;51.512;7.504;2023-06-22T12:24:00;22.93;;;15.77;;
5414;SDS011;2730;51.512;7.504;2023-06-22T12:26:27;25.47;;;15.67;;
5414;SDS011;2730;51.512;7.504;2023-06-22T12:28:54;22.23;;;16.00;;
5414;SDS011;2730;51.512;7.504;2023-06-22T12:31:21;26.37;;;15.67;;
5414;SDS011;2730;51.512;7.504;2023-06-22T12:33:47;27.77;;;18.00;;
5414;SDS011;2730;51.512;7.504;2023-06-22T12:36:14;29.30;;;18.60;;
5414;SDS011;2730;51.512;7.504;2023-06-22T12:38:43;27.90;;;18.03;;
5414;SDS011;2730;51.512;7.504;2023-06-22T12:41:10;23.30;;;16.10;;
5414;SDS011;2730;51.512;7.504;2023-06-22T12:43:36;23.13;;;16.70;;
5414;SDS011;2730;51.512;7.504;2023-06-22T12:46:03;24.77;;;17.83;;
5414;SDS011;2730;51.512;7.504;2023-06-22T12:48:30;26.80;;;15.80;;
5414;SDS011;2730;51.512;7.504;2023-06-22T12:50:57;27.17;;;17.40;;
5414;SDS011;2730;51.512;7.504;2023-06-22T12:53:23;27.93;;;16.70;;
5414;SDS011;2730;51.512;7.504;2023-06-22T12:55:53;27.83;;;18.43;;
5414;SDS011;2730;51.512;7.504;2023-06-22T12:58:20;29.13;;;19.00;;
5414;SDS011;2730;51.512;7.504;2023-06-22T13:00:47;27.07;;;17.90;;
5414;SDS011;2730;51.512;7.504;2023-06-22T13:03:14;26.27;;;17.20;;
5414;SDS011;2730;51.512;7.504;2023-06-22T13:05:41;25.37;;;18.57;;
5414;SDS011;2730;51.512;7.504;2023-06-22T13:08:08;28.47;;;17.47;;
5414;SDS011;2730;51.512;7.504;2023-06-22T13:10:36;27.80;;;18.03;;
5414;SDS011;2730;51.512;7.504;2023-06-22T13:13:04;26.10;;;16.30;;
5414;SDS011;2730;51.512;7.504;2023-06-22T13:15:30;31.50;;;18.03;;
5414;SDS011;2730;51.512;7.504;2023-06-22T13:17:57;22.07;;;16.27;;
5414;SDS011;2730;51.512;7.504;2023-06-22T13:20:24;24.23;;;16.90;;
5414;SDS011;2730;51.512;7.504;2023-06-22T13:22:51;23.90;;;16.53;;
5414;SDS011;2730;51.512;7.504;2023-06-22T13:25:18;24.50;;;16.40;;
5414;SDS011;2730;51.512;7.504;2023-06-22T13:27:48;22.97;;;16.53;;
5414;SDS011;2730;51.512;7.504;2023-06-22T13:30:16;21.93;;;14.97;;
5414;SDS011;2730;51.512;7.504;2023-06-22T13:32:43;22.90;;;16.03;;
5414;SDS011;2730;51.512;7.504;2023-06-22T13:35:09;25.60;;;15.27;;
5414;SDS011;2730;51.512;7.504;2023-06-22T13:37:36;23.23;;;15.27;;
5414;SDS011;2730;51.512;7.504;2023-06-22T13:40:03;21.20;;;15.03;;
5414;SDS011;2730;51.512;7.504;2023-06-22T13:42:31;18.10;;;13.87;;
5414;SDS011;2730;51.512;7.504;2023-06-22T13:44:58;19.70;;;15.27;;
5414;SDS011;2730;51.512;7.504;2023-06-22T13:47:26;18.73;;;14.10;;
5414;SDS011;2730;51.512;7.504;2023-06-22T13:49:53;16.20;;;13.10;;
5414;SDS011;2730;51.512;7.504;2023-06-22T13:52:20;17.93;;;13.00;;
5414;SDS011;2730;51.512;7.504;2023-06-22T13:54:47;17.30;;;11.90;;
5414;SDS011;2730;51.512;7.504;2023-06-22T13:57:14;17.40;;;13.23;;
5414;SDS011;2730;51.512;7.504;2023-06-22T13:59:40;16.60;;;12.60;;
5414;SDS011;2730;51.512;7.504;2023-06-22T14:02:07;17.80;;;11.70;;
5414;SDS011;2730;51.512;7.504;2023-06-22T14:04:35;18.27;;;13.70;;
5414;SDS011;2730;51.512;7.504;2023-06-22T14:07:02;17.27;;;13.00;;
5414;SDS011;2730;51.512;7.504;2023-06-22T14:09:29;15.53;;;11.23;;
5414;SDS011;2730;51.512;7.504;2023-06-22T14:11:56;14.57;;;10.77;;
5414;SDS011;2730;51.512;7.504;2023-06-22T14:14:22;15.40;;;12.37;;
5414;SDS011;2730;51.512;7.504;2023-06-22T14:16:49;17.03;;;13.13;;
5414;SDS011;2730;51.512;7.504;2023-06-22T14:19:16;17.90;;;12.80;;
5414;SDS011;2730;51.512;7.504;2023-06-22T14:21:45;13.70;;;11.53;;
5414;SDS011;2730;51.512;7.504;2023-06-22T14:24:12;18.60;;;12.57;;
5414;SDS011;2730;51.512;7.504;2023-06-22T14:26:39;18.47;;;11.90;;
5414;SDS011;2730;51.512;7.504;2023-06-22T14:29:05;19.77;;;12.73;;
5414;SDS011;2730;51.512;7.504;2023-06-22T14:31:32;15.43;;;12.50;;
5414;SDS011;2730;51.512;7.504;2023-06-22T14:33:59;17.53;;;13.00;;
5414;SDS011;2730;51.512;7.504;2023-06-22T14:36:27;17.53;;;13.20;;
5414;SDS011;2730;51.512;7.504;2023-06-22T14:38:55;20.53;;;14.20;;
5414;SDS011;2730;51.512;7.504;2023-06-22T14:41:22;19.43;;;13.90;;
5414;SDS011;2730;51.512;7.504;2023-06-22T14:43:49;17.20;;;12.87;;
5414;SDS011;2730;51.512;7.504;2023-06-22T14:46:17;19.87;;;14.03;;
5414;SDS011;2730;51.512;7.504;2023-06-22T14:48:45;16.73;;;13.70;;
5414;SDS011;2730;51.512;7.504;2023-06-22T14:51:12;16.83;;;13.20;;
5414;SDS011;2730;51.512;7.504;2023-06-22T14:53:39;16.63;;;13.57;;
5414;SDS011;2730;51.512;7.504;2023-06-22T14:56:07;19.47;;;13.37;;